createdAt,value
2022-07-26T00:01:20.966Z,5.10
2022-07-26T00:03:51.266Z,5.40
2022-07-26T00:06:19.785Z,5.30
2022-07-26T00:08:48.843Z,5.40
2022-07-26T00:11:18.118Z,5.20
2022-07-26T00:13:47.221Z,4.80
2022-07-26T00:16:15.624Z,5.30
2022-07-26T00:18:44.492Z,4.80
2022-07-26T00:21:12.763Z,4.60
2022-07-26T00:23:41.550Z,5.00
2022-07-26T00:26:10.003Z,5.00
2022-07-26T00:28:38.286Z,5.00
2022-07-26T00:31:06.648Z,5.30
2022-07-26T00:33:35.430Z,4.90
2022-07-26T00:36:04.193Z,5.50
2022-07-26T00:38:32.421Z,5.40
2022-07-26T00:41:00.796Z,4.80
2022-07-26T00:43:29.147Z,5.10
2022-07-26T00:45:58.011Z,5.10
2022-07-26T00:48:26.563Z,5.80
2022-07-26T00:50:55.773Z,5.20
2022-07-26T00:53:24.366Z,5.50
2022-07-26T00:55:53.834Z,5.30
2022-07-26T00:58:22.033Z,5.00
2022-07-26T01:00:50.400Z,4.50
2022-07-26T01:03:18.759Z,4.90
2022-07-26T01:05:47.092Z,4.70
2022-07-26T01:08:15.449Z,5.40
2022-07-26T01:10:43.948Z,4.80
2022-07-26T01:13:13.381Z,5.40
2022-07-26T01:15:41.693Z,5.40
2022-07-26T01:18:10.110Z,5.70
2022-07-26T01:20:38.819Z,5.90
2022-07-26T01:23:14.491Z,5.10
2022-07-26T01:25:43.678Z,5.00
2022-07-26T01:28:19.525Z,5.40
2022-07-26T01:30:50.341Z,4.70
2022-07-26T01:33:18.737Z,5.20
2022-07-26T01:35:47.416Z,5.30
2022-07-26T01:38:15.751Z,4.60
2022-07-26T01:40:44.061Z,5.80
2022-07-26T01:43:12.426Z,5.20
2022-07-26T01:45:40.831Z,5.50
2022-07-26T01:48:09.732Z,5.50
2022-07-26T01:50:38.302Z,5.70
2022-07-26T01:53:06.680Z,5.60
2022-07-26T01:55:35.974Z,5.60
2022-07-26T01:58:06.159Z,5.00
2022-07-26T02:00:34.953Z,5.50
2022-07-26T02:03:03.651Z,5.30
2022-07-26T02:05:32.202Z,5.40
2022-07-26T02:08:00.748Z,5.50
2022-07-26T02:10:48.020Z,5.50
2022-07-26T02:13:17.399Z,5.70
2022-07-26T02:15:45.853Z,6.00
2022-07-26T02:18:14.354Z,6.20
2022-07-26T02:20:42.663Z,6.00
2022-07-26T02:23:11.105Z,5.70
2022-07-26T02:25:39.323Z,6.20
2022-07-26T02:28:08.045Z,6.30
2022-07-26T02:30:37.024Z,5.70
2022-07-26T02:33:07.904Z,5.30
2022-07-26T02:35:37.006Z,6.20
2022-07-26T02:38:08.635Z,6.00
2022-07-26T02:40:38.330Z,6.80
2022-07-26T02:43:08.120Z,5.80
2022-07-26T02:45:36.953Z,5.90
2022-07-26T02:48:06.549Z,5.60
2022-07-26T02:50:36.138Z,5.70
2022-07-26T02:53:04.633Z,5.50
2022-07-26T02:55:32.972Z,6.20
2022-07-26T02:58:01.220Z,6.10
2022-07-26T03:00:29.659Z,5.70
2022-07-26T03:03:23.624Z,6.00
2022-07-26T03:05:51.935Z,7.10
2022-07-26T03:08:20.897Z,6.60
2022-07-26T03:10:49.170Z,6.10
2022-07-26T03:13:17.506Z,6.20
2022-07-26T03:15:45.871Z,5.90
2022-07-26T03:18:14.352Z,6.10
2022-07-26T03:20:42.697Z,5.80
2022-07-26T03:23:10.963Z,6.30
2022-07-26T03:25:40.060Z,6.30
2022-07-26T03:28:08.365Z,6.30
2022-07-26T03:30:36.708Z,6.50
2022-07-26T03:33:06.051Z,5.90
2022-07-26T03:35:36.687Z,6.40
2022-07-26T03:38:05.796Z,6.30
2022-07-26T03:40:34.086Z,6.70
2022-07-26T03:43:02.888Z,6.30
2022-07-26T03:45:32.264Z,7.10
2022-07-26T03:48:00.731Z,6.70
2022-07-26T03:50:29.119Z,6.60
2022-07-26T03:52:57.336Z,6.90
2022-07-26T03:55:44.631Z,6.60
2022-07-26T03:58:13.062Z,6.60
2022-07-26T04:00:41.351Z,6.10
2022-07-26T04:03:09.554Z,6.90
2022-07-26T04:05:38.609Z,6.20
2022-07-26T04:08:06.881Z,6.70
2022-07-26T04:10:35.090Z,6.60
2022-07-26T04:13:03.558Z,6.50
2022-07-26T04:15:31.955Z,6.80
2022-07-26T04:18:00.279Z,7.10
2022-07-26T04:20:28.650Z,6.30
2022-07-26T04:22:56.984Z,6.60
2022-07-26T04:25:25.460Z,6.80
2022-07-26T04:27:53.757Z,7.30
2022-07-26T04:30:22.146Z,6.80
2022-07-26T04:32:50.388Z,6.30
2022-07-26T04:35:18.778Z,7.00
2022-07-26T04:37:47.639Z,6.50
2022-07-26T04:40:21.284Z,6.40
2022-07-26T04:42:51.157Z,6.60
2022-07-26T04:45:19.555Z,6.30
2022-07-26T04:47:52.647Z,6.40
2022-07-26T04:50:22.830Z,6.70
2022-07-26T04:52:52.224Z,6.60
2022-07-26T04:55:23.045Z,6.40
2022-07-26T04:57:51.700Z,6.40
2022-07-26T05:00:24.364Z,6.50
2022-07-26T05:02:55.839Z,7.10
2022-07-26T05:05:26.199Z,6.40
2022-07-26T05:07:56.850Z,6.00
2022-07-26T05:10:35.915Z,5.70
2022-07-26T05:13:06.223Z,6.50
2022-07-26T05:15:39.336Z,6.40
2022-07-26T05:18:13.606Z,5.90
2022-07-26T05:20:42.135Z,5.80
2022-07-26T05:23:11.553Z,5.40
2022-07-26T05:25:39.945Z,5.60
2022-07-26T05:28:08.152Z,5.80
2022-07-26T05:30:36.809Z,6.00
2022-07-26T05:33:05.327Z,5.40
2022-07-26T05:35:33.624Z,6.10
2022-07-26T05:38:02.029Z,5.00
2022-07-26T05:40:30.516Z,5.70
2022-07-26T05:42:58.727Z,6.10
2022-07-26T05:45:27.200Z,5.50
2022-07-26T05:47:55.964Z,6.00
2022-07-26T05:50:24.586Z,5.40
2022-07-26T05:52:52.833Z,5.40
2022-07-26T05:55:21.299Z,5.60
2022-07-26T05:57:49.889Z,5.30
2022-07-26T06:00:19.319Z,5.60
2022-07-26T06:02:47.716Z,5.00
2022-07-26T06:05:16.261Z,6.50
2022-07-26T06:07:44.555Z,5.40
2022-07-26T06:10:13.052Z,5.70
2022-07-26T06:12:41.411Z,6.00
2022-07-26T06:15:15.673Z,5.40
2022-07-26T06:17:44.413Z,6.10
2022-07-26T06:20:12.758Z,5.60
2022-07-26T06:22:40.970Z,5.60
2022-07-26T06:25:09.879Z,6.30
2022-07-26T06:27:38.175Z,5.20
2022-07-26T06:30:08.113Z,5.80
2022-07-26T06:32:36.515Z,6.00
2022-07-26T06:35:05.442Z,5.70
2022-07-26T06:37:39.934Z,6.10
2022-07-26T06:40:10.153Z,5.50
2022-07-26T06:42:39.643Z,5.30
2022-07-26T06:45:08.427Z,5.10
2022-07-26T06:47:36.849Z,5.50
2022-07-26T06:50:05.584Z,5.90
2022-07-26T06:52:34.489Z,5.90
2022-07-26T06:55:03.909Z,5.90
2022-07-26T06:57:32.363Z,6.90
2022-07-26T07:00:00.626Z,6.80
2022-07-26T07:02:28.991Z,6.70
2022-07-26T07:04:57.491Z,6.60
2022-07-26T07:07:28.051Z,6.60
2022-07-26T07:09:57.376Z,5.80
2022-07-26T07:12:26.931Z,6.00
2022-07-26T07:14:55.299Z,5.60
2022-07-26T07:17:23.674Z,5.60
2022-07-26T07:19:51.926Z,5.40
2022-07-26T07:22:20.298Z,6.50
2022-07-26T07:24:48.907Z,6.30
2022-07-26T07:27:17.614Z,6.60
2022-07-26T07:29:45.924Z,5.60
2022-07-26T07:32:15.787Z,5.40
2022-07-26T07:34:45.927Z,6.20
2022-07-26T07:37:17.474Z,6.50
2022-07-26T07:39:50.182Z,6.30
2022-07-26T07:42:20.307Z,6.50
2022-07-26T07:44:50.307Z,6.00
2022-07-26T07:47:18.797Z,6.20
2022-07-26T07:49:47.660Z,6.60
2022-07-26T07:52:17.074Z,7.40
2022-07-26T07:54:46.572Z,7.30
2022-07-26T07:57:14.881Z,7.20
2022-07-26T07:59:43.243Z,8.30
2022-07-26T08:02:13.024Z,7.40
2022-07-26T08:04:41.463Z,7.10
2022-07-26T08:07:09.733Z,6.90
2022-07-26T08:09:38.101Z,6.90
2022-07-26T08:12:11.702Z,7.70
2022-07-26T08:14:40.087Z,8.20
2022-07-26T08:17:09.810Z,8.00
2022-07-26T08:19:41.744Z,8.30
2022-07-26T08:22:11.264Z,7.70
2022-07-26T08:24:40.665Z,8.50
2022-07-26T08:27:08.967Z,8.30
2022-07-26T08:29:37.247Z,9.30
2022-07-26T08:32:06.222Z,8.80
2022-07-26T08:34:34.806Z,8.60
2022-07-26T08:37:18.683Z,8.20
2022-07-26T08:39:48.473Z,9.00
2022-07-26T08:42:24.638Z,8.50
2022-07-26T08:44:53.147Z,8.90
2022-07-26T08:47:37.606Z,9.40
2022-07-26T08:50:09.075Z,9.80
2022-07-26T08:52:41.051Z,9.50
2022-07-26T08:55:10.955Z,9.70
2022-07-26T08:57:39.253Z,8.80
2022-07-26T09:00:16.612Z,8.90
2022-07-26T09:02:46.105Z,9.40
2022-07-26T09:05:14.637Z,9.20
2022-07-26T09:07:43.361Z,9.70
2022-07-26T09:10:14.494Z,8.80
2022-07-26T09:12:44.191Z,10.10
2022-07-26T09:15:24.323Z,9.00
2022-07-26T09:17:58.212Z,9.80
2022-07-26T09:23:01.636Z,9.40
2022-07-26T09:25:42.170Z,10.90
2022-07-26T09:28:29.907Z,9.60
2022-07-26T09:31:02.164Z,12.20
2022-07-26T09:33:51.403Z,11.50
2022-07-26T09:36:20.131Z,11.20
2022-07-26T09:38:51.076Z,11.60
2022-07-26T09:41:24.438Z,12.00
2022-07-26T09:43:54.770Z,12.50
2022-07-26T09:46:26.322Z,12.50
2022-07-26T09:49:12.304Z,12.90
2022-07-26T09:51:44.891Z,12.40
2022-07-26T09:54:19.073Z,14.40
2022-07-26T09:56:50.919Z,13.60
2022-07-26T09:59:21.990Z,14.10
2022-07-26T10:01:52.416Z,14.60
2022-07-26T10:04:21.667Z,15.00
2022-07-26T10:06:50.156Z,13.70
2022-07-26T10:09:18.937Z,14.00
2022-07-26T10:12:07.416Z,14.30
2022-07-26T10:14:36.712Z,13.70
2022-07-26T10:17:31.772Z,14.10
2022-07-26T10:20:09.296Z,14.50
2022-07-26T10:22:47.790Z,14.90
2022-07-26T10:25:19.291Z,14.90
2022-07-26T10:27:53.418Z,14.20
2022-07-26T10:30:33.592Z,14.00
2022-07-26T10:33:13.655Z,14.80
2022-07-26T10:35:43.680Z,14.20
2022-07-26T10:38:23.047Z,14.40
2022-07-26T10:41:09.197Z,15.60
2022-07-26T10:43:41.221Z,14.40
2022-07-26T10:46:16.036Z,15.40
2022-07-26T10:48:59.741Z,16.10
2022-07-26T10:51:32.293Z,16.10
2022-07-26T10:54:07.043Z,16.10
2022-07-26T10:56:36.024Z,18.40
2022-07-26T10:59:05.624Z,18.50
2022-07-26T11:01:40.511Z,19.00
2022-07-26T11:04:38.093Z,18.60
2022-07-26T11:07:06.357Z,19.80
2022-07-26T11:09:35.052Z,19.40
2022-07-26T11:12:19.813Z,19.60
2022-07-26T11:14:48.918Z,20.60
2022-07-26T11:17:24.624Z,20.10
2022-07-26T11:19:53.356Z,19.50
2022-07-26T11:22:22.270Z,20.10
2022-07-26T11:24:51.221Z,20.50
2022-07-26T11:27:19.720Z,20.50
2022-07-26T11:29:49.216Z,20.10
2022-07-26T11:32:21.693Z,21.00
2022-07-26T11:35:01.372Z,20.20
2022-07-26T11:37:30.150Z,19.90
2022-07-26T11:39:58.600Z,22.40
2022-07-26T11:42:26.923Z,20.20
2022-07-26T11:44:55.212Z,20.90
2022-07-26T11:47:24.213Z,21.50
2022-07-26T11:50:14.326Z,21.10
2022-07-26T11:52:43.304Z,21.40
2022-07-26T11:55:12.540Z,20.90
2022-07-26T11:57:40.881Z,21.60
2022-07-26T12:00:09.909Z,21.00
2022-07-26T12:02:41.133Z,21.50
2022-07-26T12:05:22.009Z,21.10
2022-07-26T12:07:56.225Z,22.40
2022-07-26T12:10:25.075Z,22.70
2022-07-26T12:13:11.412Z,22.50
2022-07-26T12:15:51.777Z,23.40
2022-07-26T12:18:25.695Z,22.40
2022-07-26T12:21:09.286Z,24.10
2022-07-26T12:23:49.439Z,22.10
2022-07-26T12:26:37.138Z,23.10
2022-07-26T12:29:24.651Z,21.70
2022-07-26T12:32:12.702Z,23.50
2022-07-26T12:34:54.363Z,23.20
2022-07-26T12:37:28.931Z,23.20
2022-07-26T12:40:11.490Z,23.20
2022-07-26T12:42:42.783Z,22.30
2022-07-26T12:45:13.102Z,24.20
2022-07-26T12:47:43.269Z,23.50
2022-07-26T12:50:12.886Z,23.20
2022-07-26T12:52:42.046Z,23.40
2022-07-26T12:55:15.091Z,23.10
2022-07-26T12:57:46.234Z,21.00
2022-07-26T13:00:18.605Z,22.20
2022-07-26T13:02:47.596Z,23.50
2022-07-26T13:05:15.971Z,21.90
2022-07-26T13:07:44.480Z,22.30
2022-07-26T13:13:02.037Z,21.10
2022-07-26T13:15:37.111Z,21.90
2022-07-26T13:18:08.042Z,22.10
2022-07-26T13:20:38.690Z,21.10
2022-07-26T13:23:13.719Z,21.90
2022-07-26T13:25:44.143Z,21.50
2022-07-26T13:28:12.438Z,20.50
2022-07-26T13:30:43.342Z,21.70
2022-07-26T13:33:12.130Z,21.80
2022-07-26T13:35:42.688Z,21.10
2022-07-26T13:38:11.368Z,20.70
2022-07-26T13:40:39.684Z,22.10
2022-07-26T13:43:08.003Z,21.40
2022-07-26T13:45:36.353Z,21.40
2022-07-26T13:48:04.945Z,21.00
2022-07-26T13:50:33.370Z,22.10
2022-07-26T13:53:03.121Z,21.30
2022-07-26T13:55:31.555Z,20.40
2022-07-26T13:57:59.778Z,20.10
2022-07-26T14:00:29.692Z,20.40
2022-07-26T14:02:58.880Z,21.40
2022-07-26T14:05:28.337Z,20.60
2022-07-26T14:07:56.723Z,20.80
2022-07-26T14:10:25.067Z,19.90
2022-07-26T14:12:53.690Z,19.60
2022-07-26T14:15:23.472Z,19.20
2022-07-26T14:17:53.115Z,19.40
2022-07-26T14:20:21.908Z,18.90
2022-07-26T14:22:56.527Z,19.70
2022-07-26T14:25:27.288Z,17.00
2022-07-26T14:27:56.359Z,13.80
2022-07-26T14:30:24.706Z,9.50
2022-07-26T14:32:53.115Z,9.60
2022-07-26T14:35:21.428Z,8.20
2022-07-26T14:37:49.708Z,6.80
2022-07-26T14:40:18.242Z,6.00
2022-07-26T14:42:46.536Z,6.50
2022-07-26T14:45:15.935Z,5.00
2022-07-26T14:47:44.813Z,5.40
2022-07-26T14:50:14.658Z,5.60
2022-07-26T14:52:47.882Z,5.50
2022-07-26T14:55:21.704Z,6.00
2022-07-26T14:57:52.976Z,5.10
2022-07-26T15:00:21.668Z,5.80
2022-07-26T15:02:50.303Z,5.10
2022-07-26T15:05:19.028Z,5.20
2022-07-26T15:07:48.070Z,5.70
2022-07-26T15:10:16.859Z,4.90
2022-07-26T15:12:45.167Z,5.10
2022-07-26T15:15:13.613Z,5.60
2022-07-26T15:17:41.842Z,5.30
2022-07-26T15:20:10.139Z,6.20
2022-07-26T15:22:38.613Z,5.90
2022-07-26T15:25:07.373Z,5.50
2022-07-26T15:27:35.718Z,5.70
2022-07-26T15:30:09.080Z,5.50
2022-07-26T15:32:42.746Z,6.30
2022-07-26T15:35:14.950Z,6.10
2022-07-26T15:37:43.947Z,6.60
2022-07-26T15:40:13.115Z,6.00
2022-07-26T15:42:44.359Z,6.10
2022-07-26T15:45:14.296Z,5.80
2022-07-26T15:47:54.303Z,6.00
2022-07-26T15:50:23.826Z,5.60
2022-07-26T15:52:52.842Z,6.40
2022-07-26T15:55:21.405Z,5.50
2022-07-26T15:57:49.876Z,5.70
2022-07-26T16:00:18.510Z,6.10
2022-07-26T16:02:46.936Z,6.20
2022-07-26T16:05:16.053Z,5.80
2022-07-26T16:07:45.437Z,5.90
2022-07-26T16:10:15.055Z,6.70
2022-07-26T16:12:43.849Z,6.30
2022-07-26T16:15:12.269Z,6.60
2022-07-26T16:17:41.007Z,6.90
2022-07-26T16:20:10.099Z,5.70
2022-07-26T16:22:41.417Z,5.80
2022-07-26T16:25:10.165Z,5.90
2022-07-26T16:27:38.417Z,6.30
2022-07-26T16:30:07.129Z,7.00
2022-07-26T16:32:35.498Z,6.20
2022-07-26T16:35:03.864Z,6.10
2022-07-26T16:37:32.127Z,6.20
2022-07-26T16:40:00.559Z,5.60
2022-07-26T16:42:28.789Z,6.40
2022-07-26T16:44:57.197Z,6.30
2022-07-26T16:47:25.608Z,5.80
2022-07-26T16:49:54.016Z,6.10
2022-07-26T16:52:22.970Z,6.30
2022-07-26T16:54:51.382Z,5.90
2022-07-26T16:57:19.628Z,6.80
2022-07-26T16:59:48.430Z,5.90
2022-07-26T17:02:16.834Z,6.40
2022-07-26T17:04:45.360Z,6.40
2022-07-26T17:07:29.101Z,6.70
2022-07-26T17:09:57.683Z,7.20
2022-07-26T17:12:25.975Z,7.80
2022-07-26T17:14:54.326Z,7.90
2022-07-26T17:17:22.651Z,8.50
2022-07-26T17:19:50.992Z,9.70
2022-07-26T17:22:19.625Z,9.80
2022-07-26T17:24:49.047Z,8.50
2022-07-26T17:27:17.358Z,8.40
2022-07-26T17:29:45.661Z,8.20
2022-07-26T17:32:14.057Z,8.80
2022-07-26T17:34:42.342Z,7.70
2022-07-26T17:37:10.751Z,8.80
2022-07-26T17:39:52.415Z,10.40
2022-07-26T17:42:22.908Z,11.10
2022-07-26T17:44:51.241Z,12.30
2022-07-26T17:47:28.768Z,11.50
2022-07-26T17:52:50.890Z,11.20
2022-07-26T17:55:20.436Z,11.40
2022-07-26T17:57:49.674Z,11.80
2022-07-26T18:00:20.666Z,11.20
2022-07-26T18:02:49.507Z,11.10
2022-07-26T18:05:19.379Z,11.00
2022-07-26T18:07:47.791Z,11.40
2022-07-26T18:10:16.232Z,11.20
2022-07-26T18:12:44.483Z,11.20
2022-07-26T18:15:12.804Z,11.30
2022-07-26T18:17:41.703Z,11.00
2022-07-26T18:20:10.634Z,10.90
2022-07-26T18:22:39.742Z,11.30
2022-07-26T18:25:08.558Z,12.00
2022-07-26T18:27:36.928Z,12.20
2022-07-26T18:30:06.070Z,11.70
2022-07-26T18:32:35.185Z,11.20
2022-07-26T18:35:04.012Z,10.70
2022-07-26T18:37:32.278Z,11.70
2022-07-26T18:40:01.099Z,12.10
2022-07-26T18:42:29.443Z,11.50
2022-07-26T18:44:57.813Z,11.40
2022-07-26T18:47:26.314Z,13.00
2022-07-26T18:49:54.665Z,13.50
2022-07-26T18:52:28.326Z,13.30
2022-07-26T18:55:07.355Z,33.80
2022-07-26T18:57:38.355Z,46.00
2022-07-26T19:00:09.732Z,31.70
2022-07-26T19:02:38.039Z,25.90
2022-07-26T19:05:06.935Z,15.10
2022-07-26T19:07:37.729Z,14.10
2022-07-26T19:10:08.102Z,13.60
2022-07-26T19:12:37.576Z,14.10
2022-07-26T19:15:07.599Z,13.10
2022-07-26T19:17:38.155Z,13.80
2022-07-26T19:20:07.713Z,14.10
2022-07-26T19:22:36.943Z,13.90
2022-07-26T19:25:09.175Z,12.80
2022-07-26T19:27:38.308Z,13.30
2022-07-26T19:30:08.576Z,13.80
2022-07-26T19:32:38.262Z,13.20
2022-07-26T19:35:07.376Z,13.80
2022-07-26T19:37:37.519Z,12.90
2022-07-26T19:40:06.579Z,13.30
2022-07-26T19:42:35.007Z,13.30
2022-07-26T19:45:03.616Z,13.50
2022-07-26T19:47:31.894Z,12.40
2022-07-26T19:50:00.271Z,13.30
2022-07-26T19:52:28.765Z,14.10
2022-07-26T19:54:56.990Z,15.00
2022-07-26T19:57:25.384Z,13.80
2022-07-26T19:59:54.601Z,13.50
2022-07-26T20:02:23.301Z,14.00
2022-07-26T20:04:52.195Z,13.20
2022-07-26T20:07:20.520Z,13.60
2022-07-26T20:09:59.143Z,13.00
2022-07-26T20:12:27.625Z,15.10
2022-07-26T20:14:55.994Z,16.00
2022-07-26T20:17:25.649Z,16.80
2022-07-26T20:19:53.989Z,15.50
2022-07-26T20:22:23.599Z,16.50
2022-07-26T20:24:55.376Z,15.20
2022-07-26T20:27:24.873Z,14.30
2022-07-26T20:29:57.395Z,13.60
2022-07-26T20:32:31.978Z,12.50
2022-07-26T20:35:00.318Z,15.10
2022-07-26T20:37:28.553Z,14.30
2022-07-26T20:39:56.990Z,13.70
2022-07-26T20:42:25.407Z,13.30
2022-07-26T20:44:53.929Z,14.20
2022-07-26T20:47:23.055Z,13.30
2022-07-26T20:49:55.638Z,13.40
2022-07-26T20:52:29.533Z,13.40
2022-07-26T20:54:57.782Z,13.70
2022-07-26T20:57:26.164Z,14.00
2022-07-26T20:59:54.561Z,13.20
2022-07-26T21:02:22.905Z,13.20
2022-07-26T21:04:51.470Z,12.80
2022-07-26T21:07:19.860Z,13.30
2022-07-26T21:09:48.211Z,13.30
2022-07-26T21:12:16.582Z,12.20
2022-07-26T21:14:44.934Z,12.90
2022-07-26T21:17:13.703Z,13.30
2022-07-26T21:19:42.165Z,13.60
2022-07-26T21:22:10.433Z,12.80
2022-07-26T21:24:38.876Z,12.30
2022-07-26T21:27:07.948Z,14.00
2022-07-26T21:29:39.377Z,12.60
2022-07-26T21:32:07.951Z,12.00
2022-07-26T21:34:36.297Z,13.30
2022-07-26T21:37:05.548Z,11.90
2022-07-26T21:39:33.753Z,12.80
2022-07-26T21:42:02.020Z,12.20
2022-07-26T21:44:30.284Z,12.80
2022-07-26T21:46:58.543Z,12.80
2022-07-26T21:49:26.828Z,12.00
2022-07-26T21:51:55.093Z,13.20
2022-07-26T21:54:23.856Z,11.80
2022-07-26T21:56:53.106Z,12.10
2022-07-26T21:59:21.411Z,12.70
2022-07-26T22:01:49.623Z,11.90
2022-07-26T22:04:18.327Z,12.00
2022-07-26T22:06:46.521Z,11.40
2022-07-26T22:09:15.077Z,10.70
2022-07-26T22:11:43.644Z,11.90
2022-07-26T22:14:11.873Z,10.80
2022-07-26T22:16:40.172Z,9.90
2022-07-26T22:19:08.664Z,10.60
2022-07-26T22:21:37.158Z,10.50
2022-07-26T22:24:06.361Z,10.50
2022-07-26T22:26:34.632Z,9.90
2022-07-26T22:29:03.155Z,10.20
2022-07-26T22:31:31.450Z,9.50
2022-07-26T22:33:59.754Z,10.50
2022-07-26T22:36:28.204Z,9.80
2022-07-26T22:38:56.393Z,9.90
2022-07-26T22:41:24.699Z,10.00
2022-07-26T22:43:53.187Z,9.30
2022-07-26T22:46:27.613Z,9.50
2022-07-26T22:48:57.642Z,9.90
2022-07-26T22:51:25.905Z,10.00
2022-07-26T22:53:54.122Z,10.00
2022-07-26T22:56:22.581Z,10.10
2022-07-26T22:58:50.786Z,9.10
2022-07-26T23:01:19.417Z,10.00
2022-07-26T23:03:49.745Z,10.20
2022-07-26T23:06:31.248Z,10.00
2022-07-26T23:09:00.106Z,10.00
2022-07-26T23:11:28.280Z,10.30
2022-07-26T23:14:00.855Z,10.00
2022-07-26T23:16:29.165Z,10.90
2022-07-26T23:18:57.457Z,10.60
2022-07-26T23:21:25.802Z,9.70
2022-07-26T23:23:53.966Z,11.20
2022-07-26T23:26:22.254Z,9.90
2022-07-26T23:28:51.757Z,10.30
2022-07-26T23:31:20.071Z,10.10
2022-07-26T23:33:50.514Z,9.90
2022-07-26T23:36:24.258Z,10.50
2022-07-26T23:38:54.471Z,9.60
2022-07-26T23:41:23.038Z,9.80
2022-07-26T23:43:52.133Z,9.70
2022-07-26T23:46:21.217Z,10.30
2022-07-26T23:48:50.293Z,9.40
2022-07-26T23:51:19.620Z,9.10
2022-07-26T23:53:47.933Z,9.60
2022-07-26T23:56:16.623Z,9.90
2022-07-26T23:58:45.542Z,8.00
